Time;durP1;ratioP1;P1;durP2;ratioP2;P2;SDS_P1;SDS_P2;PMS_P1;PMS_P2;Temp;Humidity;BMP_temperature;BMP_pressure;BME280_temperature;BME280_humidity;BME280_pressure;Samples;Min_cycle;Max_cycle;Signal;HPM_P1;HPM_P2
2023/09/27 00:27:27;;;;;;;13.30;10.20;;;;;;;15.15;82.86;102038.34;7389332;19;19943;-65
2023/09/27 00:29:57;;;;;;;16.60;11.88;;;;;;;15.14;83.24;102047.53;7389071;19;19918;-65
2023/09/27 00:32:25;;;;;;;16.85;11.15;;;;;;;15.14;82.74;102050.25;7393421;19;19934;-65
2023/09/27 00:34:54;;;;;;;14.52;11.63;;;;;;;15.14;83.06;102058.41;7393972;19;19923;-65
2023/09/27 00:37:23;;;;;;;17.77;12.35;;;;;;;15.16;82.96;102067.19;7397605;19;19919;-65
2023/09/27 00:39:51;;;;;;;16.10;11.93;;;;;;;15.15;82.73;102066.34;7392756;19;19927;-65
2023/09/27 00:42:20;;;;;;;16.70;11.98;;;;;;;15.15;82.75;102076.34;7394511;19;20009;-64
2023/09/27 00:44:51;;;;;;;16.08;11.45;;;;;;;15.16;82.98;102081.63;7396703;19;20016;-64
2023/09/27 00:47:20;;;;;;;18.80;11.55;;;;;;;15.15;82.96;102082.63;7398345;19;20242;-64
2023/09/27 00:49:55;;;;;;;16.48;12.82;;;;;;;15.13;82.71;102076.56;7396116;19;19922;-64
2023/09/27 00:52:24;;;;;;;15.88;11.25;;;;;;;15.13;83.00;102067.56;7395539;19;19951;-64
2023/09/27 00:55:14;;;;;;;18.67;12.07;;;;;;;15.12;82.63;102076.72;7394095;19;19922;-64
2023/09/27 00:57:43;;;;;;;17.73;12.65;;;;;;;15.11;82.59;102081.28;7393185;19;19926;-64
2023/09/27 01:00:16;;;;;;;18.63;13.48;;;;;;;15.11;82.86;102078.59;7393944;19;19926;-64
2023/09/27 01:02:44;;;;;;;21.33;12.77;;;;;;;15.12;82.97;102074.84;7388386;19;20492;-64
2023/09/27 01:05:13;;;;;;;16.35;11.63;;;;;;;15.13;82.66;102079.28;7394187;19;20322;-64
2023/09/27 01:07:42;;;;;;;18.30;13.60;;;;;;;15.13;82.54;102073.84;7394626;19;19923;-65
2023/09/27 01:10:12;;;;;;;18.02;12.50;;;;;;;15.12;82.45;102063.16;7396289;19;20346;-65
2023/09/27 01:12:40;;;;;;;18.35;11.98;;;;;;;15.10;83.02;102065.22;7394527;19;19927;-64
2023/09/27 01:15:11;;;;;;;17.80;12.50;;;;;;;15.07;83.18;102071.81;7395719;19;19926;-65
2023/09/27 01:17:55;;;;;;;16.52;12.20;;;;;;;14.93;83.74;102067.13;7394569;19;19951;-64
2023/09/27 01:20:23;;;;;;;15.05;12.10;;;;;;;14.95;83.48;102067.81;7394344;19;20550;-65
2023/09/27 01:22:58;;;;;;;15.68;12.25;;;;;;;14.89;83.45;102074.78;7394670;19;19918;-65
2023/09/27 01:25:30;;;;;;;19.95;13.45;;;;;;;14.89;83.52;102072.06;7394049;19;20420;-64
2023/09/27 01:28:00;;;;;;;19.75;13.98;;;;;;;14.86;83.29;102066.16;7394300;19;20276;-65
2023/09/27 01:30:32;;;;;;;18.98;13.27;;;;;;;14.85;83.62;102064.44;7393135;19;20394;-65
2023/09/27 01:33:04;;;;;;;19.25;12.60;;;;;;;14.82;83.65;102062.09;7394041;19;19930;-64
2023/09/27 01:35:33;;;;;;;18.70;13.25;;;;;;;14.79;83.90;102065.19;7392873;19;19922;-65
2023/09/27 01:38:05;;;;;;;23.63;13.73;;;;;;;14.75;83.77;102066.53;7394868;19;20297;-64
2023/09/27 01:40:35;;;;;;;20.13;12.68;;;;;;;14.74;83.82;102065.69;7390161;19;19926;-64
2023/09/27 01:43:04;;;;;;;18.33;13.43;;;;;;;14.70;84.11;102064.34;7395351;19;20345;-65
2023/09/27 01:45:34;;;;;;;17.20;12.32;;;;;;;14.67;84.33;102072.81;7399397;19;20368;-64
2023/09/27 01:48:04;;;;;;;15.98;12.23;;;;;;;14.63;84.15;102071.47;7399814;19;19982;-65
2023/09/27 01:50:36;;;;;;;16.92;12.38;;;;;;;14.61;83.91;102081.69;7398799;19;20337;-65
2023/09/27 01:53:08;;;;;;;20.73;13.30;;;;;;;14.57;84.01;102076.78;7401030;19;19940;-66
2023/09/27 01:55:56;;;;;;;19.55;12.05;;;;;;;14.54;84.14;102077.94;7394445;19;20252;-65
2023/09/27 01:58:25;;;;;;;15.88;12.15;;;;;;;14.53;84.42;102079.84;7397458;19;19948;-65
2023/09/27 02:00:53;;;;;;;18.70;13.77;;;;;;;14.51;84.34;102065.59;7397039;19;19935;-65
2023/09/27 02:03:22;;;;;;;17.85;12.57;;;;;;;14.47;84.10;102058.81;7399283;19;19918;-65
2023/09/27 02:05:52;;;;;;;19.35;13.65;;;;;;;14.43;84.62;102059.34;7399370;19;19937;-65
2023/09/27 02:08:23;;;;;;;17.77;12.82;;;;;;;14.39;84.66;102069.69;7399612;19;20480;-65
2023/09/27 02:10:52;;;;;;;18.75;13.20;;;;;;;14.36;84.53;102066.50;7399951;19;20563;-64
2023/09/27 02:13:21;;;;;;;19.15;14.35;;;;;;;14.32;84.59;102068.66;7399978;19;19919;-65
2023/09/27 02:15:50;;;;;;;19.40;13.73;;;;;;;14.28;84.77;102075.41;7398439;19;19933;-65
2023/09/27 02:18:18;;;;;;;23.08;14.93;;;;;;;14.25;84.98;102077.63;7397821;19;19918;-65
2023/09/27 02:21:07;;;;;;;17.45;13.35;;;;;;;14.20;85.07;102086.28;7395390;19;19932;-65
2023/09/27 02:23:59;;;;;;;19.38;14.05;;;;;;;14.18;85.27;102093.75;7394836;19;20014;-65
2023/09/27 02:26:27;;;;;;;18.55;13.13;;;;;;;14.14;85.65;102080.72;7397113;19;19968;-65
2023/09/27 02:28:56;;;;;;;20.20;14.35;;;;;;;14.13;85.49;102079.84;7394936;19;19922;-65
2023/09/27 02:31:25;;;;;;;19.88;13.98;;;;;;;14.12;85.57;102086.28;7397827;19;20545;-65
2023/09/27 02:33:54;;;;;;;20.52;14.88;;;;;;;14.09;85.61;102079.38;7399703;19;19922;-65
2023/09/27 02:36:22;;;;;;;21.13;13.73;;;;;;;14.06;85.69;102068.03;7398899;19;19946;-65
2023/09/27 02:38:51;;;;;;;19.45;14.10;;;;;;;14.03;85.92;102063.78;7396517;19;19946;-65
2023/09/27 02:41:22;;;;;;;21.02;15.02;;;;;;;14.02;85.81;102067.50;7395228;19;19923;-65
2023/09/27 02:43:51;;;;;;;22.73;16.25;;;;;;;14.00;85.95;102061.41;7398786;19;19922;-65
2023/09/27 02:46:20;;;;;;;20.80;15.23;;;;;;;13.98;86.16;102068.00;7398273;19;19918;-64
2023/09/27 02:48:49;;;;;;;22.23;15.07;;;;;;;13.97;86.07;102079.88;7398512;19;20411;-65
2023/09/27 02:51:17;;;;;;;21.65;14.23;;;;;;;13.95;86.17;102076.47;7396649;19;19998;-65
2023/09/27 02:53:46;;;;;;;20.70;16.67;;;;;;;13.92;86.09;102077.69;7399178;19;19933;-66
2023/09/27 02:56:15;;;;;;;22.38;14.52;;;;;;;13.91;86.19;102073.25;7396085;19;19922;-65
2023/09/27 02:58:47;;;;;;;22.48;14.88;;;;;;;13.90;86.45;102068.00;7395818;19;19923;-65
2023/09/27 03:01:15;;;;;;;21.60;15.98;;;;;;;13.85;86.14;102060.38;7396153;19;20282;-65
2023/09/27 03:03:44;;;;;;;20.77;14.98;;;;;;;13.85;86.15;102073.13;7400119;19;19918;-65
2023/09/27 03:06:15;;;;;;;21.92;15.13;;;;;;;13.82;86.15;102066.16;7398775;19;21027;-65
2023/09/27 03:08:45;;;;;;;22.35;13.80;;;;;;;13.80;86.53;102068.19;7399123;19;19927;-65
2023/09/27 03:11:36;;;;;;;21.70;14.88;;;;;;;13.79;86.45;102071.06;7392706;19;19918;-65
2023/09/27 03:14:07;;;;;;;20.00;14.80;;;;;;;13.77;86.17;102073.94;7395811;19;20234;-65
2023/09/27 03:16:37;;;;;;;22.38;14.75;;;;;;;13.76;86.51;102071.41;7395604;19;19957;-65
2023/09/27 03:19:06;;;;;;;21.35;15.35;;;;;;;13.76;86.24;102068.72;7397731;19;20284;-65
2023/09/27 03:21:34;;;;;;;21.23;14.77;;;;;;;13.75;86.70;102070.56;7398843;19;19985;-65
2023/09/27 03:24:03;;;;;;;21.70;16.65;;;;;;;13.73;86.69;102067.16;7396254;19;19959;-64
2023/09/27 03:26:32;;;;;;;22.35;15.57;;;;;;;13.71;86.66;102069.22;7394937;19;19922;-65
2023/09/27 03:29:01;;;;;;;19.75;14.02;;;;;;;13.70;86.49;102058.53;7395796;19;20292;-65
2023/09/27 03:31:33;;;;;;;21.67;15.23;;;;;;;13.68;86.61;102069.53;7396638;19;19934;-65
2023/09/27 03:34:01;;;;;;;23.35;16.52;;;;;;;13.68;86.92;102057.88;7394408;19;19930;-65
2023/09/27 03:36:30;;;;;;;21.10;15.15;;;;;;;13.68;86.81;102068.69;7398575;19;19942;-64
2023/09/27 03:39:14;;;;;;;22.33;15.20;;;;;;;13.64;87.09;102071.72;7398245;19;20348;-65
2023/09/27 03:41:43;;;;;;;24.27;15.73;;;;;;;13.66;87.16;102081.56;7399102;19;19943;-65
2023/09/27 03:44:11;;;;;;;23.00;14.55;;;;;;;13.65;87.04;102075.28;7396954;19;19923;-65
2023/09/27 03:46:43;;;;;;;22.98;15.20;;;;;;;13.64;86.81;102074.44;7397568;19;20390;-64
2023/09/27 03:49:12;;;;;;;;;;;;;;;13.44;88.30;102074.91;7398272;19;19950;-64
2023/09/27 03:52:01;;;;;;;23.73;14.98;;;;;;;13.58;87.42;102067.00;7396223;19;19929;-65
2023/09/27 03:54:32;;;;;;;25.20;15.35;;;;;;;13.58;87.11;102074.28;7392696;19;19922;-65
2023/09/27 03:57:01;;;;;;;25.13;17.35;;;;;;;13.58;87.25;102072.41;7397040;19;19955;-64
2023/09/27 03:59:30;;;;;;;23.10;15.20;;;;;;;13.58;87.21;102063.44;7396257;19;19943;-65
2023/09/27 04:02:01;;;;;;;23.55;15.80;;;;;;;13.58;87.34;102063.44;7397536;19;19936;-64
2023/09/27 04:04:30;;;;;;;25.75;17.40;;;;;;;13.58;87.25;102063.44;7396442;19;20370;-65
2023/09/27 04:07:05;;;;;;;26.63;17.63;;;;;;;13.58;87.52;102058.03;7393948;19;19918;-64
2023/09/27 04:09:54;;;;;;;26.35;17.30;;;;;;;13.57;87.68;102068.00;7393176;19;19930;-65
2023/09/27 04:12:23;;;;;;;26.58;18.05;;;;;;;13.57;87.45;102061.75;7396318;19;19922;-64
2023/09/27 04:14:51;;;;;;;24.40;16.05;;;;;;;13.57;87.23;102057.16;7391032;19;19923;-64
2023/09/27 04:17:22;;;;;;;24.15;16.92;;;;;;;13.54;87.49;102068.34;7396728;19;20409;-65
2023/09/27 04:19:53;;;;;;;24.38;17.15;;;;;;;13.54;87.48;102064.78;7397555;19;19939;-64
2023/09/27 04:22:21;;;;;;;26.38;16.27;;;;;;;13.52;87.90;102064.94;7397785;19;19925;-65
2023/09/27 04:24:57;;;;;;;25.23;17.20;;;;;;;13.53;87.84;102069.34;7394236;19;19922;-64
2023/09/27 04:27:26;;;;;;;22.58;15.65;;;;;;;13.51;87.59;102074.06;7393996;19;19918;-64
2023/09/27 04:29:55;;;;;;;22.50;15.57;;;;;;;13.51;87.76;102074.06;7395959;19;19951;-64
2023/09/27 04:32:27;;;;;;;23.88;16.30;;;;;;;13.53;88.00;102077.47;7396292;19;19922;-65
2023/09/27 04:34:55;;;;;;;27.55;18.48;;;;;;;13.54;88.08;102072.91;7394504;19;19922;-64
2023/09/27 04:37:24;;;;;;;23.42;15.07;;;;;;;13.52;87.60;102070.34;7395941;19;19938;-65
2023/09/27 04:39:52;;;;;;;23.17;16.02;;;;;;;13.51;87.92;102071.38;7394925;19;19919;-64
2023/09/27 04:42:21;;;;;;;22.52;16.95;;;;;;;13.50;87.51;102076.97;7395757;19;20292;-64
2023/09/27 04:44:57;;;;;;;25.67;15.88;;;;;;;13.49;87.89;102076.13;7396243;19;20496;-64
2023/09/27 04:47:28;;;;;;;26.45;16.63;;;;;;;13.48;87.99;102085.25;7396106;19;19914;-66
2023/09/27 04:49:57;;;;;;;26.85;17.48;;;;;;;13.47;87.81;102079.97;7395256;19;19922;-64
2023/09/27 04:52:25;;;;;;;26.15;17.85;;;;;;;13.44;88.06;102073.06;7395288;19;19990;-64
2023/09/27 04:54:57;;;;;;;25.02;16.13;;;;;;;13.43;88.16;102073.22;7396085;19;19939;-64
2023/09/27 04:57:25;;;;;;;25.10;16.60;;;;;;;13.41;88.41;102076.09;7393738;19;19929;-65
2023/09/27 04:59:54;;;;;;;24.45;17.85;;;;;;;13.42;88.83;102072.38;7392337;19;19985;-65
2023/09/27 05:02:23;;;;;;;26.00;16.60;;;;;;;13.45;88.54;102076.63;7395116;19;19914;-64
2023/09/27 05:04:54;;;;;;;28.48;17.00;;;;;;;13.47;88.36;102085.41;7392132;19;19921;-64
2023/09/27 05:07:23;;;;;;;27.10;16.65;;;;;;;13.47;88.21;102091.66;7394756;19;20493;-65
2023/09/27 05:09:52;;;;;;;27.20;17.95;;;;;;;13.48;88.49;102093.38;7393659;19;19926;-64
2023/09/27 05:12:20;;;;;;;30.05;17.38;;;;;;;13.51;88.44;102097.59;7395045;19;19950;-64
2023/09/27 05:14:49;;;;;;;27.52;17.92;;;;;;;13.53;88.17;102109.97;7395216;19;20025;-64
2023/09/27 05:17:18;;;;;;;27.13;16.75;;;;;;;13.53;88.28;102118.09;7394372;19;19947;-64
2023/09/27 05:19:46;;;;;;;27.60;18.20;;;;;;;13.55;88.45;102126.03;7401926;19;19914;-65
2023/09/27 05:22:19;;;;;;;28.63;16.88;;;;;;;13.54;88.09;102116.22;7400613;19;19950;-64
2023/09/27 05:24:47;;;;;;;27.35;17.52;;;;;;;13.55;88.03;102126.03;7400124;19;19954;-64
2023/09/27 05:27:16;;;;;;;29.33;17.90;;;;;;;13.57;88.21;102122.16;7401567;19;19978;-64
2023/09/27 05:29:45;;;;;;;27.73;18.75;;;;;;;13.59;87.91;102127.41;7402741;19;19951;-65
2023/09/27 05:32:33;;;;;;;28.15;18.20;;;;;;;13.60;87.96;102143.47;7397093;19;19923;-64
2023/09/27 05:35:04;;;;;;;25.80;16.77;;;;;;;13.61;87.90;102139.75;7400229;19;19926;-64
2023/09/27 05:37:35;;;;;;;24.92;16.80;;;;;;;13.59;87.50;102147.19;7403970;19;19922;-64
2023/09/27 05:40:07;;;;;;;27.58;17.17;;;;;;;13.56;87.63;102136.69;7405815;19;19933;-64
2023/09/27 05:42:36;;;;;;;27.13;18.77;;;;;;;13.55;87.75;102140.41;7400925;19;20463;-64
2023/09/27 05:45:06;;;;;;;26.25;18.70;;;;;;;13.54;88.05;102144.16;7402479;19;19951;-64
2023/09/27 05:47:35;;;;;;;25.92;16.88;;;;;;;13.55;87.92;102144.97;7391645;19;20301;-62
2023/09/27 05:50:04;;;;;;;28.40;19.65;;;;;;;13.59;88.15;102152.59;7400166;19;19943;-62
2023/09/27 05:52:35;;;;;;;24.23;16.83;;;;;;;13.65;87.97;102156.53;7397958;19;19925;-63
2023/09/27 05:55:05;;;;;;;27.27;17.02;;;;;;;13.71;87.82;102152.31;7398878;19;19936;-64
2023/09/27 05:57:34;;;;;;;27.90;17.92;;;;;;;13.76;87.79;102152.66;7399087;19;19992;-62
2023/09/27 06:00:19;;;;;;;26.80;18.65;;;;;;;13.81;87.80;102147.56;7398912;19;19950;-63
2023/09/27 06:02:47;;;;;;;28.58;18.02;;;;;;;13.89;88.05;102142.19;7398793;19;19978;-63
2023/09/27 06:05:16;;;;;;;26.75;16.77;;;;;;;13.96;87.54;102126.94;7392914;19;19919;-62
2023/09/27 06:07:47;;;;;;;26.33;17.52;;;;;;;14.03;87.65;102122.53;7397433;19;19922;-62
2023/09/27 06:10:16;;;;;;;24.58;16.63;;;;;;;14.07;87.54;102126.59;7401134;19;19923;-62
2023/09/27 06:12:45;;;;;;;25.13;16.05;;;;;;;14.12;87.13;102124.22;7398099;19;19933;-63
2023/09/27 06:15:15;;;;;;;25.55;17.05;;;;;;;14.15;87.19;102118.47;7397386;19;19970;-62
2023/09/27 06:17:44;;;;;;;28.45;17.23;;;;;;;14.18;87.26;102114.59;7398477;19;19918;-63
2023/09/27 06:20:19;;;;;;;25.38;16.83;;;;;;;14.21;87.63;102108.81;7399490;19;19929;-63
2023/09/27 06:22:52;;;;;;;25.30;16.20;;;;;;;14.22;87.78;102113.22;7376635;19;19926;-63
2023/09/27 06:25:23;;;;;;;23.95;16.67;;;;;;;14.22;88.19;102110.50;7391191;19;19962;-63
2023/09/27 06:27:52;;;;;;;26.08;18.17;;;;;;;14.23;88.23;102112.22;7390505;19;19927;-63
2023/09/27 06:30:20;;;;;;;26.05;16.92;;;;;;;14.24;88.17;102114.72;7398048;19;20282;-62
2023/09/27 06:32:49;;;;;;;25.33;17.60;;;;;;;14.25;88.24;102116.44;7388724;19;19989;-63
2023/09/27 06:35:18;;;;;;;28.83;15.63;;;;;;;14.24;87.97;102122.88;7388944;19;19918;-63
2023/09/27 06:37:48;;;;;;;29.42;18.15;;;;;;;14.24;88.19;102120.16;7394197;19;19944;-63
2023/09/27 06:40:23;;;;;;;24.63;16.52;;;;;;;14.25;88.24;102124.56;7399063;19;20403;-63
2023/09/27 06:42:52;;;;;;;25.35;16.33;;;;;;;14.24;88.18;102131.00;7397213;19;19985;-63
2023/09/27 06:45:21;;;;;;;27.98;18.90;;;;;;;14.23;88.54;102129.31;7399210;19;19923;-63
2023/09/27 06:47:49;;;;;;;24.02;15.75;;;;;;;14.21;87.90;102127.78;7396115;19;19922;-63
2023/09/27 06:50:19;;;;;;;25.77;18.08;;;;;;;14.16;88.15;102122.03;7396678;19;19922;-62
2023/09/27 06:52:49;;;;;;;28.55;16.33;;;;;;;14.15;88.06;102121.16;7395525;19;19978;-63
2023/09/27 06:55:41;;;;;;;26.88;16.98;;;;;;;14.14;88.38;102119.50;7393886;19;19968;-63
2023/09/27 06:58:09;;;;;;;27.90;19.48;;;;;;;14.15;88.44;102126.59;7396432;19;19923;-62
2023/09/27 07:00:38;;;;;;;26.35;17.13;;;;;;;14.20;88.49;102132.34;7395611;19;19918;-62
2023/09/27 07:03:07;;;;;;;24.20;16.98;;;;;;;14.24;88.22;102136.41;7397688;19;19910;-62
2023/09/27 07:05:36;;;;;;;30.13;16.08;;;;;;;14.27;88.04;102130.69;7398376;19;19914;-62
2023/09/27 07:08:05;;;;;;;29.27;17.10;;;;;;;14.33;87.83;102129.13;7392000;19;20693;-62
2023/09/27 07:10:33;;;;;;;25.35;16.83;;;;;;;14.38;88.10;102134.91;7398606;19;19943;-62
2023/09/27 07:13:06;;;;;;;27.17;18.05;;;;;;;14.43;88.43;102146.09;7396198;19;19918;-63
2023/09/27 07:15:35;;;;;;;23.52;16.60;;;;;;;14.47;87.54;102129.31;7398873;19;19919;-62
2023/09/27 07:18:03;;;;;;;25.85;16.75;;;;;;;14.53;87.82;102136.78;7397298;19;19926;-62
2023/09/27 07:20:36;;;;;;;25.02;17.05;;;;;;;14.58;87.19;102132.72;7397571;19;19927;-62
2023/09/27 07:23:07;;;;;;;26.23;18.40;;;;;;;14.59;87.49;102132.50;7393967;19;20656;-62
2023/09/27 07:25:37;;;;;;;28.13;16.88;;;;;;;14.65;87.46;102134.56;7398480;19;20293;-62
2023/09/27 07:28:08;;;;;;;27.13;18.15;;;;;;;14.70;87.48;102142.16;7391980;19;19943;-62
2023/09/27 07:30:37;;;;;;;27.70;16.77;;;;;;;14.73;87.39;102147.25;7397510;19;19919;-62
2023/09/27 07:33:10;;;;;;;26.13;17.40;;;;;;;14.79;87.40;102146.56;7394347;19;19951;-63
2023/09/27 07:36:00;;;;;;;26.08;18.23;;;;;;;14.84;87.29;102133.31;7396699;19;20406;-62
2023/09/27 07:38:28;;;;;;;29.80;18.20;;;;;;;14.90;87.19;102144.31;7394818;19;19934;-62
2023/09/27 07:40:57;;;;;;;25.00;17.73;;;;;;;14.97;86.63;102149.91;7396119;19;19923;-63
2023/09/27 07:43:29;;;;;;;29.33;18.92;;;;;;;15.04;86.74;102160.91;7393115;19;19926;-63
2023/09/27 07:45:59;;;;;;;25.33;17.20;;;;;;;15.07;86.50;102155.09;7389319;19;20280;-62
2023/09/27 07:48:30;;;;;;;27.65;18.25;;;;;;;15.09;86.93;102150.38;7395202;19;20340;-63
2023/09/27 07:50:59;;;;;;;27.25;19.30;;;;;;;15.12;87.22;102159.00;7395374;19;20358;-62
2023/09/27 07:53:34;;;;;;;25.92;17.08;;;;;;;15.17;86.95;102144.91;7397959;19;20013;-62
2023/09/27 07:56:03;;;;;;;27.35;17.95;;;;;;;15.20;86.54;102144.53;7396606;19;19938;-63
2023/09/27 07:58:34;;;;;;;27.15;19.25;;;;;;;15.24;86.58;102143.16;7391374;19;19997;-64
2023/09/27 08:01:03;;;;;;;26.58;18.73;;;;;;;15.28;86.65;102156.22;7394406;19;20562;-64
2023/09/27 08:03:31;;;;;;;28.38;18.35;;;;;;;15.30;86.68;102161.47;7394868;19;20009;-64
2023/09/27 08:06:00;;;;;;;26.70;17.08;;;;;;;15.33;86.51;102164.69;7397555;19;19923;-63
2023/09/27 08:08:29;;;;;;;28.65;18.20;;;;;;;15.35;86.24;102165.34;7394805;19;19922;-63
2023/09/27 08:10:58;;;;;;;26.33;18.08;;;;;;;15.38;86.58;102175.84;7393912;19;19961;-63
2023/09/27 08:13:30;;;;;;;24.20;16.13;;;;;;;15.43;86.37;102181.63;7395045;19;19918;-63
2023/09/27 08:16:03;;;;;;;24.08;16.95;;;;;;;15.49;86.83;102179.22;7395839;19;19914;-63
2023/09/27 08:18:32;;;;;;;27.75;17.13;;;;;;;15.53;86.72;102175.16;7394061;19;19922;-64
2023/09/27 08:21:01;;;;;;;28.00;19.85;;;;;;;15.52;86.56;102189.75;7394220;19;19918;-64
2023/09/27 08:23:29;;;;;;;27.45;20.27;;;;;;;15.53;86.74;102183.31;7396660;19;20388;-63
2023/09/27 08:25:58;;;;;;;24.63;16.50;;;;;;;15.57;86.85;102176.50;7398869;19;20480;-63
2023/09/27 08:28:27;;;;;;;27.13;17.10;;;;;;;15.59;86.63;102177.13;7394087;19;19922;-63
2023/09/27 08:31:19;;;;;;;27.67;17.42;;;;;;;15.63;86.98;102183.91;7392005;19;19986;-63
2023/09/27 08:33:48;;;;;;;27.98;20.17;;;;;;;15.70;86.89;102182.19;7394622;19;19926;-63
2023/09/27 08:36:18;;;;;;;27.08;18.58;;;;;;;15.80;86.73;102174.63;7392640;19;19970;-65
2023/09/27 08:38:46;;;;;;;24.77;16.58;;;;;;;15.88;86.18;102161.84;7385531;19;19926;-63
2023/09/27 08:41:16;;;;;;;26.70;17.63;;;;;;;16.00;86.14;102165.00;7392204;19;19918;-64
2023/09/27 08:43:47;;;;;;;26.25;18.48;;;;;;;16.15;85.63;102174.06;7392805;19;20261;-64
2023/09/27 08:46:19;;;;;;;25.25;17.58;;;;;;;16.25;85.15;102171.09;7395084;19;19915;-63
2023/09/27 08:48:48;;;;;;;24.88;18.08;;;;;;;16.32;85.31;102169.31;7396422;19;19919;-64
2023/09/27 08:51:17;;;;;;;26.30;16.35;;;;;;;16.47;84.92;102163.94;7395141;19;19922;-63
2023/09/27 08:53:46;;;;;;;25.85;17.90;;;;;;;16.61;84.57;102166.69;7396177;19;19922;-64
2023/09/27 08:56:16;;;;;;;27.20;17.20;;;;;;;16.72;84.53;102177.16;7398325;19;19926;-63
2023/09/27 08:58:48;;;;;;;26.02;18.77;;;;;;;16.83;84.32;102170.38;7399701;19;19929;-63
2023/09/27 09:01:42;;;;;;;26.50;16.45;;;;;;;16.95;83.41;102160.75;7394568;19;19925;-64
2023/09/27 09:04:11;;;;;;;23.77;17.30;;;;;;;17.08;83.45;102155.50;7400815;19;20223;-63
2023/09/27 09:06:40;;;;;;;26.42;17.42;;;;;;;17.22;83.15;102172.84;7401680;19;19923;-63
2023/09/27 09:09:11;;;;;;;26.13;17.83;;;;;;;17.26;82.56;102173.34;7394321;19;19915;-63
2023/09/27 09:11:43;;;;;;;26.52;17.17;;;;;;;17.27;82.46;102183.16;7401570;19;19945;-63
2023/09/27 09:14:11;;;;;;;25.08;16.92;;;;;;;17.30;82.53;102170.00;7397226;19;20400;-63
2023/09/27 09:16:47;;;;;;;27.98;17.25;;;;;;;17.38;82.61;102174.53;7394292;19;19923;-64
2023/09/27 09:19:22;;;;;;;27.08;16.52;;;;;;;17.46;82.96;102188.03;7401691;19;19922;-63
2023/09/27 09:21:58;;;;;;;24.40;16.45;;;;;;;17.48;83.01;102189.53;7398179;19;19926;-63
2023/09/27 09:24:27;;;;;;;26.40;18.10;;;;;;;17.51;82.79;102189.19;7398635;19;19927;-64
2023/09/27 09:27:08;;;;;;;23.77;16.83;;;;;;;17.55;83.15;102193.22;7393530;19;19954;-64
2023/09/27 09:29:50;;;;;;;25.40;16.67;;;;;;;17.63;82.72;102182.22;7400303;19;19943;-64
2023/09/27 09:32:23;;;;;;;23.77;15.93;;;;;;;17.75;82.50;102190.75;7396516;19;19927;-64
2023/09/27 09:34:53;;;;;;;24.10;16.52;;;;;;;17.87;82.43;102210.16;7396304;19;19918;-64
2023/09/27 09:37:24;;;;;;;28.20;17.77;;;;;;;18.00;81.81;102210.31;7401056;19;19923;-63
2023/09/27 09:39:55;;;;;;;23.50;16.45;;;;;;;18.09;82.11;102215.44;7400024;19;20019;-64
2023/09/27 09:42:34;;;;;;;22.77;16.67;;;;;;;18.12;81.62;102215.06;7400008;19;19958;-64
2023/09/27 09:45:05;;;;;;;25.55;16.63;;;;;;;18.19;82.15;102209.69;7397218;19;19930;-64
2023/09/27 09:47:37;;;;;;;29.05;18.35;;;;;;;18.25;81.71;102213.53;7399284;19;19938;-63
2023/09/27 09:50:16;;;;;;;24.13;16.50;;;;;;;18.27;82.11;102214.16;7398980;19;19926;-63
2023/09/27 09:52:53;;;;;;;26.17;16.85;;;;;;;18.27;81.74;102208.69;7400466;19;20312;-64
2023/09/27 09:55:24;;;;;;;25.60;16.38;;;;;;;18.30;81.53;102200.13;7394377;19;19925;-63
2023/09/27 09:57:59;;;;;;;22.42;15.60;;;;;;;18.34;82.14;102193.22;7395859;19;19934;-64
2023/09/27 10:00:30;;;;;;;27.98;16.33;;;;;;;18.40;81.52;102211.56;7391604;19;19979;-65
2023/09/27 10:03:04;;;;;;;24.20;16.33;;;;;;;18.42;81.78;102212.22;7398449;19;19984;-66
2023/09/27 10:05:39;;;;;;;25.67;16.55;;;;;;;18.45;81.37;102212.66;7367157;19;19919;-66
2023/09/27 10:08:08;;;;;;;23.50;16.08;;;;;;;18.49;81.48;102203.03;7392513;19;19926;-67
2023/09/27 10:10:38;;;;;;;24.05;16.27;;;;;;;18.59;81.32;102197.28;7380277;19;19926;-65
2023/09/27 10:13:09;;;;;;;25.55;17.17;;;;;;;18.70;81.14;102194.00;7396284;19;21025;-65
2023/09/27 10:15:38;;;;;;;26.95;16.88;;;;;;;18.76;81.28;102198.69;7395711;19;19923;-66
2023/09/27 10:18:35;;;;;;;22.45;15.38;;;;;;;18.77;81.30;102191.34;7400012;19;19914;-65
2023/09/27 10:21:06;;;;;;;23.13;15.75;;;;;;;18.86;81.02;102196.44;7396675;19;20353;-65
2023/09/27 10:24:00;;;;;;;23.38;16.10;;;;;;;18.90;80.82;102191.41;7401633;19;20022;-65
2023/09/27 10:26:44;;;;;;;23.98;15.80;;;;;;;18.97;81.04;102179.50;7395172;19;19994;-65
2023/09/27 10:29:15;;;;;;;21.73;14.65;;;;;;;19.25;80.54;102163.03;7392601;19;19918;-65
2023/09/27 10:32:13;;;;;;;24.83;14.95;;;;;;;19.54;78.95;102170.16;7399071;19;19947;-65
2023/09/27 10:35:21;;;;;;;20.77;14.45;;;;;;;19.87;79.23;102154.69;7392847;19;19926;-65
2023/09/27 10:38:08;;;;;;;22.05;14.93;;;;;;;20.02;79.43;102145.47;7387198;19;20356;-65
2023/09/27 10:40:43;;;;;;;16.67;11.48;;;;;;;19.96;76.77;102143.56;7388555;19;20529;-65
2023/09/27 10:43:32;;;;;;;18.27;11.85;;;;;;;20.06;77.53;102142.13;7400328;19;19922;-65
2023/09/27 10:46:04;;;;;;;20.63;12.75;;;;;;;20.18;77.10;102134.13;7398713;19;19924;-65
2023/09/27 10:48:33;;;;;;;20.27;12.65;;;;;;;20.31;77.11;102120.47;7397185;19;19943;-66
2023/09/27 10:51:04;;;;;;;20.73;12.50;;;;;;;20.47;77.56;102114.56;7397352;19;19922;-66
2023/09/27 10:53:35;;;;;;;17.77;11.65;;;;;;;20.50;76.15;102116.88;7398098;19;19926;-68
2023/09/27 10:56:04;;;;;;;20.08;12.43;;;;;;;20.51;75.91;102110.34;7397833;19;19943;-65
2023/09/27 10:58:33;;;;;;;20.52;12.85;;;;;;;20.54;76.40;102111.78;7396062;19;19922;-65
2023/09/27 11:01:04;;;;;;;18.63;14.90;;;;;;;20.50;76.24;102103.19;7396261;19;19923;-65
2023/09/27 11:03:34;;;;;;;21.77;13.57;;;;;;;20.48;76.96;102096.25;7397978;19;19930;-66
2023/09/27 11:06:13;;;;;;;20.15;15.35;;;;;;;20.41;76.33;102088.03;7397414;19;19922;-65
2023/09/27 11:08:43;;;;;;;20.30;14.00;;;;;;;20.45;75.91;102083.81;7395792;19;19929;-66
2023/09/27 11:11:31;;;;;;;18.83;12.05;;;;;;;20.44;76.14;102065.72;7394047;19;19919;-66
2023/09/27 11:14:00;;;;;;;17.13;12.48;;;;;;;20.55;76.29;102061.47;7397022;19;19934;-66
2023/09/27 11:16:48;;;;;;;;;;;;;;;20.53;76.94;102066.34;7398356;19;20355;-65
2023/09/27 11:19:27;;;;;;;18.77;12.77;;;;;;;20.72;76.03;102088.19;7393860;19;19922;-66
2023/09/27 11:22:00;;;;;;;17.50;12.32;;;;;;;20.86;76.41;102074.44;7396893;19;20261;-66
2023/09/27 11:24:39;;;;;;;21.52;13.90;;;;;;;21.04;75.03;102063.66;7397334;19;19926;-66
2023/09/27 11:27:07;;;;;;;19.98;12.63;;;;;;;21.32;74.54;102058.69;7377947;19;19953;-66
2023/09/27 11:29:37;;;;;;;17.70;13.23;;;;;;;21.55;73.88;102052.66;7392333;19;19919;-65
2023/09/27 11:32:06;;;;;;;18.25;11.88;;;;;;;21.72;73.22;102054.66;7390985;19;19956;-65
2023/09/27 11:34:58;;;;;;;17.60;12.18;;;;;;;21.71;72.91;102047.47;7387730;19;20001;-65
2023/09/27 11:37:29;;;;;;;18.70;11.80;;;;;;;21.74;72.96;102044.28;7390613;19;19919;-65
2023/09/27 11:39:58;;;;;;;20.17;12.65;;;;;;;21.71;72.38;102063.09;7394645;19;19922;-65
2023/09/27 11:42:28;;;;;;;18.20;11.95;;;;;;;21.68;71.79;102069.88;7396602;19;19918;-65
2023/09/27 11:45:05;;;;;;;16.63;12.57;;;;;;;21.77;70.80;102058.63;7392358;19;19955;-66
2023/09/27 11:47:34;;;;;;;20.08;12.20;;;;;;;21.97;71.40;102070.31;7394202;19;19987;-65
2023/09/27 11:50:24;;;;;;;15.15;11.32;;;;;;;22.12;71.32;102060.69;7393278;19;19925;-66
2023/09/27 11:52:55;;;;;;;16.52;12.05;;;;;;;22.18;69.48;102059.78;7395750;19;19930;-66
2023/09/27 11:55:24;;;;;;;17.92;10.95;;;;;;;22.15;69.59;102049.25;7394263;19;19923;-65
2023/09/27 11:57:52;;;;;;;15.23;10.63;;;;;;;22.12;70.75;102049.72;7389320;19;19922;-65